aviador You're here:

LYPG Decoded Metar

PODGORICA in SERBIA
Report Time2018-04-21 07:30:00
UTC Time2018-04-21 07:59:20
Flight Rules vfr VFR
Wind340° at 04 kt
W.Decomp.*RWY 36: 3.7 kt HW 1.6 kt LCW
W.Rank340° ranks 5
Current wind is below 340° avg. (5.3)
Visibility9999 m
Phenomena:N/A
Clouds:N/A
Expected CloudBase > 7,200 ft AGL from Temp-Dew spread
CeilingNone
Temp22°C (ISA +7)
Dew Point04°C (31% RH)
AAT19.3°C
QNH1021 hPa
Density Alt837 ft
Elevation141 ft
Report Wrong Elevation
Raw Report
LYPG 210730Z 34004KT 300V080 CAVOK 22/04 Q1021 NOSIG=

Extra information for LYPG:More info

Metar Taf Metar & Taf Last 4 Metars F.Rules Stats Wind Profile Meteogram Temp Stats Airport Information Weather charts Add Link Nearby VenuesMetar ALERT Operation Metar Decoded Social comments